Time;durP1;ratioP1;P1;durP2;ratioP2;P2;SDS_P1;SDS_P2;PMS_P1;PMS_P2;Temp;Humidity;BMP_temperature;BMP_pressure;BME280_temperature;BME280_humidity;BME280_pressure;Samples;Min_cycle;Max_cycle;Signal;HPM_P1;HPM_P2
2023/09/21 00:01:10;;;;;;;12.50;8.53;;;;;;;14.16;80.68;100108.39;1768517;81;25346;-59
2023/09/21 00:03:40;;;;;;;11.70;7.92;;;;;;;14.15;80.29;100110.33;1768490;81;25508;-59
2023/09/21 00:06:09;;;;;;;10.90;7.42;;;;;;;14.13;80.73;100109.88;1768405;81;25499;-57
2023/09/21 00:08:37;;;;;;;11.18;7.97;;;;;;;14.15;80.93;100108.19;1768464;81;25524;-54
2023/09/21 00:11:04;;;;;;;12.93;7.65;;;;;;;14.15;80.79;100106.83;1768373;81;27345;-57
2023/09/21 00:13:34;;;;;;;10.18;7.78;;;;;;;14.15;80.59;100108.19;1740973;81;25505;-57
2023/09/21 00:16:06;;;;;;;10.75;7.60;;;;;;;14.15;80.48;100102.75;1768405;81;25526;-57
2023/09/21 00:18:34;;;;;;;13.68;8.70;;;;;;;14.14;80.56;100106.01;1768035;81;25697;-57
2023/09/21 00:21:05;;;;;;;13.32;8.68;;;;;;;14.13;80.41;100107.16;1768447;81;25453;-55
2023/09/21 00:23:30;;;;;;;14.33;8.13;;;;;;;14.11;80.36;100109.40;1767495;81;27368;-54
2023/09/21 00:26:00;;;;;;;12.75;8.30;;;;;;;14.09;80.46;100106.23;1768353;81;25293;-55
2023/09/21 00:28:31;;;;;;;16.80;9.15;;;;;;;14.07;80.52;100112.58;1765360;81;25461;-57
2023/09/21 00:31:02;;;;;;;13.65;7.78;;;;;;;14.05;80.98;100110.77;1762479;81;26484;-57
2023/09/21 00:33:34;;;;;;;11.08;7.95;;;;;;;14.03;81.03;100104.87;1762482;81;25312;-54
2023/09/21 00:36:04;;;;;;;10.90;9.00;;;;;;;14.04;81.32;100105.66;1762470;81;27329;-58
2023/09/21 00:38:31;;;;;;;12.55;8.75;;;;;;;14.00;81.27;100106.33;1761905;81;25708;-57
2023/09/21 00:41:04;;;;;;;14.35;8.20;;;;;;;13.98;81.36;100107.23;1762522;81;25523;-57
2023/09/21 00:43:33;;;;;;;11.38;7.60;;;;;;;13.96;81.41;100108.69;1762444;81;25545;-56
2023/09/21 00:46:04;;;;;;;13.22;8.45;;;;;;;13.95;81.47;100108.47;1762591;81;25351;-57
2023/09/21 00:48:36;;;;;;;12.93;8.60;;;;;;;13.94;81.99;100106.88;1762369;81;27533;-57
2023/09/21 00:51:09;;;;;;;14.73;8.73;;;;;;;13.92;81.69;100115.94;1730327;81;25498;-57
2023/09/21 00:53:39;;;;;;;14.28;7.97;;;;;;;13.91;82.11;100104.27;1762560;81;25294;-58
2023/09/21 00:56:12;;;;;;;11.20;8.10;;;;;;;13.88;81.99;100110.38;1730547;81;25454;-57
2023/09/21 00:58:48;;;;;;;12.43;8.88;;;;;;;13.87;81.88;100105.27;1762452;81;25469;-57
2023/09/21 01:01:24;;;;;;;13.10;8.88;;;;;;;13.86;82.24;100104.48;1762759;81;28172;-58
2023/09/21 01:03:55;;;;;;;11.40;7.70;;;;;;;13.86;82.39;100103.67;1763076;81;25322;-58
2023/09/21 01:06:24;;;;;;;14.25;9.10;;;;;;;13.86;82.44;100105.03;1762710;81;25326;-59
2023/09/21 01:08:54;;;;;;;13.08;8.58;;;;;;;13.84;82.55;100101.29;1762587;81;25695;-59
2023/09/21 01:11:24;;;;;;;10.95;8.53;;;;;;;13.82;82.42;100105.73;1729628;81;25411;-59
2023/09/21 01:13:51;;;;;;;16.05;8.15;;;;;;;13.82;82.74;100104.37;1762408;81;27428;-59
2023/09/21 01:16:23;;;;;;;14.15;8.75;;;;;;;13.82;82.51;100104.37;1762489;81;25370;-59
2023/09/21 01:18:52;;;;;;;14.70;8.85;;;;;;;13.82;83.00;100104.91;1761829;81;25305;-59
2023/09/21 01:21:35;;;;;;;15.60;8.95;;;;;;;13.81;82.88;100105.48;1761747;81;25627;-59
2023/09/21 01:24:07;;;;;;;14.60;8.48;;;;;;;13.80;82.87;100103.09;1757291;81;25287;-59
2023/09/21 01:26:36;;;;;;;11.22;8.30;;;;;;;13.77;83.01;100101.86;1762456;81;27403;-58
2023/09/21 01:29:04;;;;;;;11.35;8.95;;;;;;;13.76;82.71;100103.55;1765999;81;25312;-59
2023/09/21 01:31:31;;;;;;;11.55;8.03;;;;;;;13.72;83.03;100101.25;1768331;81;25464;-58
2023/09/21 01:34:03;;;;;;;14.75;8.48;;;;;;;13.68;82.98;100092.19;1768460;81;26180;-59
2023/09/21 01:36:29;;;;;;;13.32;8.70;;;;;;;13.66;83.06;100100.68;1767887;81;25543;-59
2023/09/21 01:38:58;;;;;;;10.80;8.05;;;;;;;13.65;83.41;100109.95;1768560;81;32791;-59
2023/09/21 01:41:30;;;;;;;10.43;8.03;;;;;;;13.62;83.34;100101.09;1768410;81;26267;-58
2023/09/21 01:43:57;;;;;;;14.87;8.80;;;;;;;13.60;83.36;100110.16;1768494;81;25302;-58
2023/09/21 01:46:24;;;;;;;11.90;8.95;;;;;;;13.59;83.62;100104.50;1768323;81;25517;-59
2023/09/21 01:48:53;;;;;;;11.20;8.23;;;;;;;13.57;83.67;100101.30;1768496;81;25973;-59
2023/09/21 01:51:20;;;;;;;9.43;7.80;;;;;;;13.55;83.69;100100.30;1768273;81;28422;-59
2023/09/21 01:53:49;;;;;;;12.85;8.63;;;;;;;13.54;83.68;100095.20;1768408;81;25469;-58
2023/09/21 01:56:18;;;;;;;12.65;8.68;;;;;;;13.57;83.86;100098.59;1768481;81;25449;-59
2023/09/21 01:58:47;;;;;;;10.48;8.28;;;;;;;13.56;83.92;100095.66;1768413;81;25492;-59
2023/09/21 02:01:17;;;;;;;11.45;8.98;;;;;;;13.55;84.02;100096.23;1768353;81;25322;-59
2023/09/21 02:03:44;;;;;;;13.53;8.78;;;;;;;13.55;83.85;100104.92;1767996;81;27909;-58
2023/09/21 02:06:15;;;;;;;13.08;9.13;;;;;;;13.53;84.05;100098.46;1768510;81;35153;-58
2023/09/21 02:08:42;;;;;;;13.28;9.03;;;;;;;13.53;83.76;100103.89;1768434;81;25293;-58
2023/09/21 02:11:09;;;;;;;13.98;9.48;;;;;;;13.53;83.97;100104.47;1768368;81;25523;-58
2023/09/21 02:13:41;;;;;;;14.83;10.38;;;;;;;13.50;83.78;100098.34;1768447;81;25502;-58
2023/09/21 02:16:09;;;;;;;;;;;;;;;13.48;83.88;100101.38;1770962;81;27431;-58
2023/09/21 02:18:37;;;;;;;13.25;9.13;;;;;;;13.46;83.83;100098.21;1768305;81;25354;-59
2023/09/21 02:21:09;;;;;;;18.35;8.85;;;;;;;13.41;83.86;100101.92;1768361;81;25468;-58
2023/09/21 02:23:37;;;;;;;14.98;8.50;;;;;;;13.39;84.05;100102.03;1767735;81;25495;-58
2023/09/21 02:26:04;;;;;;;10.58;8.48;;;;;;;13.37;84.69;100094.78;1768444;81;25351;-58
2023/09/21 02:28:32;;;;;;;13.05;9.43;;;;;;;13.34;84.56;100095.45;1768202;81;27393;-58
2023/09/21 02:31:03;;;;;;;21.25;9.58;;;;;;;13.32;84.73;100092.27;1768316;81;25497;-58
2023/09/21 02:33:29;;;;;;;13.55;9.13;;;;;;;13.29;84.65;100090.97;1767510;81;25519;-59
2023/09/21 02:35:58;;;;;;;11.85;9.53;;;;;;;13.27;84.72;100100.02;1768526;81;26104;-58
2023/09/21 02:38:26;;;;;;;14.45;8.95;;;;;;;13.26;85.08;100095.16;1768335;81;25499;-58
2023/09/21 02:40:54;;;;;;;12.80;9.08;;;;;;;13.24;84.99;100097.39;1768475;81;31336;-56
2023/09/21 02:43:22;;;;;;;12.13;9.18;;;;;;;13.22;84.90;100094.21;1768267;81;25730;-58
2023/09/21 02:45:50;;;;;;;16.70;9.13;;;;;;;13.19;84.78;100092.73;1768436;81;32281;-59
2023/09/21 02:48:17;;;;;;;13.15;9.18;;;;;;;13.16;85.06;100091.48;1768293;81;26065;-58
2023/09/21 02:50:49;;;;;;;12.20;9.03;;;;;;;13.12;84.92;100087.03;1768540;81;25374;-58
2023/09/21 02:53:20;;;;;;;10.63;8.65;;;;;;;13.08;85.02;100086.34;1740907;81;26820;-58
2023/09/21 02:55:52;;;;;;;11.05;8.58;;;;;;;13.07;85.05;100086.09;1768544;81;25686;-59
2023/09/21 02:58:20;;;;;;;13.18;8.53;;;;;;;13.05;85.23;100084.84;1768541;81;25298;-58
2023/09/21 03:00:49;;;;;;;12.58;9.18;;;;;;;13.03;85.60;100084.39;1768452;81;25495;-58
2023/09/21 03:03:22;;;;;;;12.73;9.18;;;;;;;13.01;85.48;100083.93;1768495;81;25366;-59
2023/09/21 03:05:52;;;;;;;13.32;8.90;;;;;;;12.97;85.26;100076.19;1768530;81;27333;-57
2023/09/21 03:08:21;;;;;;;13.18;9.15;;;;;;;12.96;85.53;100081.41;1768414;81;25356;-58
2023/09/21 03:10:55;;;;;;;13.45;9.05;;;;;;;12.93;85.75;100074.70;1768616;81;25351;-57
2023/09/21 03:13:24;;;;;;;13.22;8.55;;;;;;;12.93;85.62;100069.27;1768424;81;25580;-58
2023/09/21 03:15:58;;;;;;;14.13;9.30;;;;;;;12.92;85.62;100064.17;1768445;81;25433;-58
2023/09/21 03:18:27;;;;;;;16.12;9.48;;;;;;;12.91;85.89;100072.10;1768572;81;28134;-55
2023/09/21 03:20:56;;;;;;;11.28;9.13;;;;;;;12.90;85.96;100068.57;1768537;81;25507;-58
2023/09/21 03:23:27;;;;;;;11.80;9.03;;;;;;;12.89;85.99;100067.00;1768596;81;25544;-58
2023/09/21 03:25:54;;;;;;;15.00;9.68;;;;;;;12.89;86.02;100070.50;1768547;81;27614;-58
2023/09/21 03:28:24;;;;;;;12.95;9.50;;;;;;;12.88;85.89;100068.90;1768407;81;25486;-58
2023/09/21 03:30:54;;;;;;;12.75;9.18;;;;;;;12.86;85.92;100063.01;1768529;81;27960;-57
2023/09/21 03:33:24;;;;;;;10.93;8.43;;;;;;;12.87;85.85;100065.16;1768344;81;25553;-58
2023/09/21 03:35:51;;;;;;;13.22;9.68;;;;;;;12.87;85.87;100063.80;1768534;81;25463;-58
2023/09/21 03:38:22;;;;;;;11.22;9.28;;;;;;;12.88;86.12;100061.33;1768588;81;34647;-57
2023/09/21 03:40:51;;;;;;;14.18;9.45;;;;;;;12.85;86.06;100058.70;1768480;81;25318;-58
2023/09/21 03:43:21;;;;;;;12.13;8.70;;;;;;;12.86;86.11;100064.94;1768608;81;27373;-57
2023/09/21 03:45:48;;;;;;;12.18;8.78;;;;;;;12.84;86.10;100065.84;1768513;81;25664;-58
2023/09/21 03:48:18;;;;;;;13.93;9.30;;;;;;;12.85;86.25;100063.34;1768508;81;25346;-59
2023/09/21 03:50:47;;;;;;;11.28;8.90;;;;;;;12.84;86.24;100057.13;1768431;81;25552;-60
2023/09/21 03:53:14;;;;;;;13.28;8.95;;;;;;;12.85;86.35;100060.63;1741128;81;25540;-58
2023/09/21 03:55:41;;;;;;;11.33;9.00;;;;;;;12.86;86.47;100060.87;1768547;81;27866;-59
2023/09/21 03:58:12;;;;;;;10.50;8.80;;;;;;;12.86;86.32;100054.87;1768358;81;25555;-59
2023/09/21 04:00:39;;;;;;;9.48;7.65;;;;;;;12.88;86.45;100055.90;1768420;81;25468;-59
2023/09/21 04:03:10;;;;;;;9.98;8.05;;;;;;;12.88;86.36;100054.54;1768392;81;25479;-59
2023/09/21 04:05:42;;;;;;;13.93;8.53;;;;;;;12.86;86.07;100050.80;1768501;81;25509;-59
2023/09/21 04:08:09;;;;;;;11.83;8.30;;;;;;;12.84;86.22;100050.34;1768473;81;27230;-59
2023/09/21 04:10:40;;;;;;;13.48;8.75;;;;;;;12.84;86.19;100043.55;1768352;81;25445;-58
2023/09/21 04:13:09;;;;;;;8.80;7.87;;;;;;;12.84;86.19;100047.63;1768364;81;25418;-59
2023/09/21 04:15:36;;;;;;;12.98;8.20;;;;;;;12.82;86.06;100044.45;1768401;81;25485;-60
2023/09/21 04:18:09;;;;;;;14.53;9.20;;;;;;;12.81;86.09;100050.20;1768626;81;25568;-60
2023/09/21 04:20:40;;;;;;;11.15;8.40;;;;;;;12.79;86.04;100053.24;1767616;81;28180;-60
2023/09/21 04:23:08;;;;;;;9.70;7.37;;;;;;;12.77;86.15;100050.61;1768523;81;25374;-60
2023/09/21 04:25:38;;;;;;;10.40;8.20;;;;;;;12.76;86.33;100043.61;1739843;81;25446;-60
2023/09/21 04:28:07;;;;;;;12.93;8.95;;;;;;;12.77;86.50;100043.83;1768605;81;34640;-61
2023/09/21 04:30:35;;;;;;;11.85;9.15;;;;;;;12.77;86.67;100044.64;1763823;81;25110;-60
2023/09/21 04:33:04;;;;;;;12.37;8.83;;;;;;;12.77;86.85;100042.47;1762448;81;27467;-60
2023/09/21 04:35:32;;;;;;;10.60;7.70;;;;;;;12.76;86.94;100032.76;1762347;81;25708;-61
2023/09/21 04:38:03;;;;;;;12.73;10.10;;;;;;;12.78;86.98;100037.28;1762740;81;25453;-61
2023/09/21 04:40:30;;;;;;;13.28;9.05;;;;;;;12.77;87.07;100026.19;1762551;81;25589;-61
2023/09/21 04:42:57;;;;;;;11.20;8.70;;;;;;;12.77;87.25;100028.91;1762420;81;25480;-60
2023/09/21 04:45:27;;;;;;;12.82;8.45;;;;;;;12.76;87.30;100023.27;1762347;81;29646;-62
2023/09/21 04:48:04;;;;;;;11.00;7.83;;;;;;;12.78;87.34;100032.65;1762317;81;26015;-61
2023/09/21 04:50:32;;;;;;;12.58;8.25;;;;;;;12.79;87.27;100023.96;1762439;81;25339;-60
2023/09/21 04:52:59;;;;;;;10.08;8.00;;;;;;;12.79;87.42;100028.82;1762285;81;27618;-61
2023/09/21 04:55:27;;;;;;;14.45;8.50;;;;;;;12.80;87.62;100029.61;1762409;81;25437;-60
2023/09/21 04:57:55;;;;;;;12.80;8.90;;;;;;;12.83;87.65;100028.95;1762454;81;27378;-61
2023/09/21 05:00:23;;;;;;;11.18;8.15;;;;;;;12.83;87.87;100022.95;1762400;81;25508;-61
2023/09/21 05:02:50;;;;;;;10.38;8.40;;;;;;;12.87;88.03;100024.44;1762316;81;25533;-62
2023/09/21 05:05:18;;;;;;;10.58;8.43;;;;;;;12.91;88.26;100023.24;1762330;81;25423;-61
2023/09/21 05:07:47;;;;;;;17.12;7.87;;;;;;;12.93;88.29;100016.91;1762341;81;25452;-63
2023/09/21 05:10:14;;;;;;;17.20;8.75;;;;;;;12.98;88.37;100024.86;1762472;81;32827;-62
2023/09/21 05:12:41;;;;;;;13.72;9.68;;;;;;;13.02;88.74;100025.20;1761112;81;25825;-59
2023/09/21 05:15:14;;;;;;;10.88;8.28;;;;;;;13.07;89.01;100026.92;1761091;81;25532;-60
2023/09/21 05:17:40;;;;;;;12.88;8.70;;;;;;;13.13;88.99;100026.16;1760757;81;26702;-60
2023/09/21 05:20:11;;;;;;;9.55;7.85;;;;;;;13.20;89.47;100025.86;1762647;81;32434;-59
2023/09/21 05:22:42;;;;;;;11.40;7.87;;;;;;;13.27;89.57;100022.03;1762393;81;27415;-60
2023/09/21 05:25:12;;;;;;;9.65;7.72;;;;;;;13.36;89.67;100023.34;1762379;81;25429;-60
2023/09/21 05:27:41;;;;;;;11.90;8.55;;;;;;;13.44;89.99;100025.19;1762518;81;25483;-61
2023/09/21 05:30:15;;;;;;;11.20;7.65;;;;;;;13.54;90.05;100032.70;1762119;81;25457;-61
2023/09/21 05:32:43;;;;;;;11.35;8.33;;;;;;;13.62;89.86;100035.33;1762346;81;25330;-61
2023/09/21 05:35:15;;;;;;;11.35;7.87;;;;;;;13.74;89.90;100031.04;1762364;81;27334;-62
2023/09/21 05:37:41;;;;;;;11.93;7.70;;;;;;;13.84;90.09;100031.97;1760735;81;32454;-60
2023/09/21 05:40:13;;;;;;;13.25;11.20;;;;;;;13.94;90.21;100027.45;1761143;81;25343;-59
2023/09/21 05:42:44;;;;;;;10.63;8.40;;;;;;;14.07;90.48;100025.55;1762354;81;25535;-60
2023/09/21 05:45:11;;;;;;;10.88;7.87;;;;;;;14.22;90.59;100021.92;1762423;81;25359;-60
2023/09/21 05:47:39;;;;;;;11.03;7.83;;;;;;;14.34;90.15;100027.38;1762295;81;27418;-61
2023/09/21 05:50:13;;;;;;;10.13;8.05;;;;;;;14.44;89.74;100030.19;1762137;81;25455;-60
2023/09/21 05:52:40;;;;;;;12.55;8.13;;;;;;;14.55;89.43;100034.05;1762227;81;25529;-60
2023/09/21 05:55:12;;;;;;;11.73;8.08;;;;;;;14.62;89.26;100030.78;1762409;81;27947;-62
2023/09/21 05:57:39;;;;;;;12.40;7.33;;;;;;;14.72;89.18;100030.31;1761079;81;30488;-61
2023/09/21 06:00:12;;;;;;;9.95;8.00;;;;;;;14.84;89.19;100026.77;1762201;81;27989;-57
2023/09/21 06:02:40;;;;;;;11.53;9.25;;;;;;;14.96;89.25;100025.95;1761081;81;25547;-59
2023/09/21 06:05:11;;;;;;;15.48;12.30;;;;;;;15.10;89.26;100031.80;1761859;81;25542;-60
2023/09/21 06:07:38;;;;;;;11.00;8.35;;;;;;;15.27;89.65;100032.08;1761846;81;26453;-66
2023/09/21 06:10:10;;;;;;;11.48;7.75;;;;;;;15.42;89.17;100029.97;1761961;81;25472;-62
2023/09/21 06:12:37;;;;;;;11.40;7.92;;;;;;;15.56;88.53;100032.86;1762019;81;27392;-62
2023/09/21 06:15:10;;;;;;;12.13;8.08;;;;;;;15.72;88.85;100031.54;1762340;81;34629;-62
2023/09/21 06:17:41;;;;;;;9.38;7.42;;;;;;;15.92;89.01;100031.08;1762436;81;25545;-63
2023/09/21 06:20:11;;;;;;;12.35;7.70;;;;;;;16.11;88.84;100033.92;1762349;81;26281;-63
2023/09/21 06:22:42;;;;;;;15.30;8.60;;;;;;;16.31;88.68;100038.88;1762386;81;25352;-62
2023/09/21 06:25:11;;;;;;;9.70;7.45;;;;;;;16.52;88.17;100039.16;1762562;81;27353;-60
2023/09/21 06:27:39;;;;;;;8.93;7.60;;;;;;;16.66;87.21;100040.05;1762578;81;29805;-59
2023/09/21 06:30:15;;;;;;;11.63;7.62;;;;;;;16.81;87.01;100027.71;1764661;81;32641;-58
2023/09/21 06:32:42;;;;;;;9.00;7.50;;;;;;;17.02;86.58;100030.70;1768435;81;25476;-59
2023/09/21 06:35:13;;;;;;;11.18;7.00;;;;;;;17.19;86.40;100037.69;1768578;81;25339;-59
2023/09/21 06:37:41;;;;;;;11.57;7.80;;;;;;;17.36;85.78;100034.50;1768516;81;27402;-59
2023/09/21 06:40:12;;;;;;;13.13;8.00;;;;;;;17.56;86.11;100026.30;1768373;81;25520;-59
2023/09/21 06:42:41;;;;;;;11.10;7.00;;;;;;;17.74;84.79;100031.52;1768504;81;25500;-60
2023/09/21 06:45:12;;;;;;;11.83;6.87;;;;;;;17.90;84.50;100032.78;1768666;81;25602;-59
2023/09/21 06:47:39;;;;;;;12.82;6.85;;;;;;;18.01;83.10;100030.22;1768393;81;25331;-59
2023/09/21 06:50:11;;;;;;;14.98;7.00;;;;;;;18.13;83.40;100034.72;1768442;81;27395;-59
2023/09/21 06:52:38;;;;;;;15.48;8.03;;;;;;;18.29;83.53;100038.11;1768362;81;25431;-59
2023/09/21 06:55:10;;;;;;;11.35;6.85;;;;;;;18.50;83.10;100031.38;1768439;81;25309;-60
2023/09/21 06:57:37;;;;;;;9.90;7.25;;;;;;;18.67;82.22;100034.16;1768412;81;25613;-60
2023/09/21 07:00:14;;;;;;;8.93;6.30;;;;;;;18.84;82.47;100038.34;1768626;81;25492;-60
2023/09/21 07:02:44;;;;;;;10.05;6.72;;;;;;;19.04;80.93;100043.89;1768416;81;27226;-60
2023/09/21 07:05:12;;;;;;;7.80;6.03;;;;;;;19.21;81.01;100038.41;1768361;81;25453;-60
2023/09/21 07:07:41;;;;;;;9.58;6.08;;;;;;;19.42;80.57;100039.82;1768528;81;25418;-60
2023/09/21 07:10:12;;;;;;;8.80;6.62;;;;;;;19.71;81.39;100032.67;1768476;81;25496;-59
2023/09/21 07:12:41;;;;;;;10.00;5.85;;;;;;;20.03;80.87;100034.17;1768530;81;25362;-60
2023/09/21 07:15:13;;;;;;;9.18;6.12;;;;;;;20.39;80.17;100037.19;1768549;81;27373;-60
2023/09/21 07:17:42;;;;;;;11.28;6.00;;;;;;;20.65;78.79;100036.20;1768304;81;25531;-60
2023/09/21 07:20:16;;;;;;;8.40;5.67;;;;;;;20.88;76.99;100035.94;1768538;81;25478;-59
2023/09/21 07:22:43;;;;;;;11.35;5.78;;;;;;;21.11;76.68;100032.88;1768508;81;26536;-59
2023/09/21 07:25:14;;;;;;;9.30;6.40;;;;;;;21.43;76.26;100039.86;1768490;81;25678;-59
2023/09/21 07:27:43;;;;;;;8.80;5.90;;;;;;;21.69;75.07;100035.83;1768666;81;27279;-59
2023/09/21 07:30:18;;;;;;;8.70;5.50;;;;;;;21.86;73.53;100032.30;1767035;81;25424;-59
2023/09/21 07:32:45;;;;;;;6.85;4.70;;;;;;;22.16;72.65;100029.16;1762534;81;25485;-59
2023/09/21 07:35:19;;;;;;;;;;;;;;;22.41;72.66;100037.23;1765073;81;25927;-59
2023/09/21 07:37:51;;;;;;;7.42;5.00;;;;;;;22.75;72.39;100027.33;1761821;81;25497;-58
2023/09/21 07:40:22;;;;;;;9.45;5.25;;;;;;;23.17;72.00;100028.19;1762448;81;28395;-58
2023/09/21 07:42:53;;;;;;;47.62;44.55;;;;;;;23.49;70.67;100025.25;1762422;81;25445;-56
2023/09/21 07:45:22;;;;;;;66.82;62.93;;;;;;;23.88;70.15;100011.02;1762404;81;25454;-56
2023/09/21 07:47:49;;;;;;;65.72;61.73;;;;;;;24.31;67.42;100014.78;1762502;81;26100;-56
2023/09/21 07:50:22;;;;;;;51.02;47.70;;;;;;;24.36;65.54;99996.38;1762515;81;25319;-57
2023/09/21 07:52:49;;;;;;;67.60;63.30;;;;;;;;;;1760713;81;27348;-63
2023/09/21 07:55:20;;;;;;;63.48;59.67;;;;;;;;;;1762349;81;25284;-78
2023/09/21 07:57:47;;;;;;;64.05;60.12;;;;;;;;;;1762437;81;25288;-73
2023/09/21 08:00:21;;;;;;;66.60;62.48;;;;;;;;;;1762526;81;25572;-73
2023/09/21 08:02:49;;;;;;;64.82;60.67;;;;;;;;;;1762518;81;25362;-73
2023/09/21 08:05:18;;;;;;;7.80;7.40;;;;;;;;;;1762463;81;27336;-72
2023/09/21 08:07:49;;;;;;;63.28;59.18;;;;;;;;;;1762328;81;25702;-72
2023/09/21 08:10:16;;;;;;;65.32;61.33;;;;;;;23.90;100.00;122580.54;1760335;81;25650;-73
2023/09/21 08:12:42;;;;;;;60.40;56.50;;;;;;;;;;1762590;81;25483;-73
2023/09/21 08:15:11;;;;;;;50.73;47.55;;;;;;;;;;1762659;81;25294;-70
2023/09/21 08:17:39;;;;;;;65.32;61.45;;;;;;;;;;1762384;81;27379;-74
2023/09/21 08:20:13;;;;;;;70.40;66.07;;;;;;;;;;1762478;81;25411;-75
2023/09/21 08:22:37;;;;;;;47.55;44.65;;;;;;;;;;1759347;81;25636;-75
2023/09/21 08:25:08;;;;;;;24.00;22.73;;;;;;;;;;1762469;81;25603;-75
2023/09/21 08:27:35;;;;;;;41.53;38.85;;;;;;;;;;1762469;81;25285;-73
2023/09/21 08:30:04;;;;;;;60.58;57.00;;;;;;;;;;1762601;81;27377;-72
2023/09/21 08:32:33;;;;;;;58.90;55.55;;;;;;;;;;1768389;81;25736;-70
2023/09/21 08:35:01;;;;;;;61.23;57.78;;;;;;;;;;1768315;81;25429;-70
2023/09/21 08:37:29;;;;;;;60.95;57.55;;;;;;;;;;1768425;81;25399;-66
2023/09/21 08:39:59;;;;;;;123.40;112.75;;;;;;;;;;1738804;81;25516;-67
2023/09/21 08:42:25;;;;;;;;;;;;;;;;;;1771093;81;27401;-68
2023/09/21 08:44:54;;;;;;;65.55;61.50;;;;;;;;;;1768357;81;25580;-68
2023/09/21 08:47:23;;;;;;;83.67;78.12;;;;;;;;;;1768514;81;25334;-68
2023/09/21 08:49:52;;;;;;;5.45;3.98;;;;;;;;;;1768277;81;25566;-67
2023/09/21 08:52:20;;;;;;;34.58;32.63;;;;;;;;;;1768397;81;25505;-66
2023/09/21 08:54:49;;;;;;;62.33;58.70;;;;;;;;;;1768430;81;26459;-64
2023/09/21 08:57:18;;;;;;;63.08;59.33;;;;;;;;;;1768450;81;25509;-61
2023/09/21 08:59:45;;;;;;;;;;;;;;;;;;1770956;81;25364;-62
2023/09/21 09:02:15;;;;;;;62.08;58.73;;;;;;;;;;1768292;81;26070;-68
2023/09/21 09:04:45;;;;;;;60.90;57.60;;;;;;;;;;1768333;81;25482;-65
2023/09/21 09:07:12;;;;;;;59.48;56.08;;;;;;;;;;1768327;81;27423;-65
2023/09/21 09:09:41;;;;;;;58.40;55.12;;;;;;;;;;1768355;81;25643;-64
2023/09/21 09:12:23;;;;;;;58.13;54.93;;;;;;;;;;1768462;81;25452;-65
2023/09/21 09:14:57;;;;;;;58.83;55.30;;;;;;;;;;1768226;81;25717;-65
2023/09/21 09:17:31;;;;;;;58.42;55.10;;;;;;;;;;1740218;81;25498;-66
2023/09/21 09:20:03;;;;;;;56.85;53.83;;;;;;;;;;1768365;81;27528;-66
2023/09/21 09:22:35;;;;;;;59.80;56.20;;;;;;;;;;1768273;81;25657;-66
2023/09/21 09:25:10;;;;;;;61.80;58.15;;;;;;;;;;1768305;81;25359;-66
2023/09/21 09:27:41;;;;;;;57.80;54.45;;;;;;;;;;1768309;81;27755;-66
2023/09/21 09:30:12;;;;;;;58.50;55.03;;;;;;;;;;1767524;81;25294;-65
2023/09/21 09:32:44;;;;;;;39.58;37.28;;;;;;;;;;1768443;81;27402;-65
2023/09/21 09:35:13;;;;;;;57.70;54.27;;;;;;;;;;1768306;81;25484;-65
2023/09/21 09:37:48;;;;;;;37.95;35.83;;;;;;;;;;1768471;81;25499;-65
2023/09/21 09:40:23;;;;;;;56.45;53.33;;;;;;;;;;1768383;81;25524;-65
2023/09/21 09:42:52;;;;;;;57.73;54.42;;;;;;;;;;1768091;81;25349;-65
2023/09/21 09:45:26;;;;;;;38.20;36.17;;;;;;;;;;1768289;81;27585;-65
2023/09/21 09:47:57;;;;;;;53.83;50.63;;;;;;;;;;1768254;81;25505;-68
2023/09/21 09:50:31;;;;;;;81.20;74.62;;;;;;;;;;1768359;81;25353;-75
2023/09/21 09:53:02;;;;;;;60.73;56.95;;;;;;;;;;1768369;81;25494;-75
2023/09/21 09:55:33;;;;;;;53.68;50.90;;;;;;;;;;1768407;81;25096;-63
2023/09/21 09:58:01;;;;;;;56.55;53.45;;;;;;;;;;1780796;78;27428;-63
2023/09/21 10:00:35;;;;;;;56.28;53.28;;;;;;;;;;1813959;79;25711;-62
2023/09/21 10:03:03;;;;;;;59.45;56.33;;;;;;;;;;1814501;79;25549;-63
2023/09/21 10:05:30;;;;;;;57.55;53.98;;;;;;;;;;1815631;79;25519;-63
2023/09/21 10:07:59;;;;;;;55.75;52.75;;;;;;;;;;1815674;79;25465;-63
2023/09/21 10:10:30;;;;;;;57.17;53.92;;;;;;;;;;1815635;79;27258;-64
2023/09/21 10:12:57;;;;;;;56.28;53.33;;;;;;;;;;1786623;79;25527;-66
2023/09/21 10:15:25;;;;;;;56.50;53.65;;;;;;;;;;1815891;79;25470;-65
2023/09/21 10:17:57;;;;;;;55.60;52.75;;;;;;;;;;1815643;79;26095;-64
2023/09/21 10:20:27;;;;;;;55.08;52.27;;;;;;;;;;1815684;79;25314;-65
2023/09/21 10:22:55;;;;;;;54.33;51.50;;;;;;;;;;1815612;79;27357;-62
2023/09/21 10:25:47;;;;;;;55.90;53.00;;;;;;;;;;1815778;79;31858;-66
2023/09/21 10:28:34;;;;;;;55.73;52.85;;;;;;;;;;1815725;79;25455;-67
2023/09/21 10:31:11;;;;;;;58.75;55.55;;;;;;;;;;1815861;79;25713;-69
2023/09/21 10:34:49;;;;;;;5.17;2.12;;;;;;;32.00;35.94;99884.06;1868366;76;25522;-68
2023/09/21 10:37:17;;;;;;;4.60;2.33;;;;;;;31.63;36.82;99886.84;1824625;78;25321;-68
2023/09/21 10:39:47;;;;;;;3.92;2.52;;;;;;;31.33;36.97;99882.28;1824564;78;27539;-68
2023/09/21 10:42:19;;;;;;;3.75;2.17;;;;;;;31.25;37.97;99876.83;1824524;78;25804;-67
2023/09/21 10:45:00;;;;;;;2.40;2.20;;;;;;;31.17;37.92;99884.71;1824621;78;25442;-67
2023/09/21 10:47:38;;;;;;;2.50;2.30;;;;;;;31.04;38.44;99884.05;1824531;78;25506;-68
2023/09/21 10:50:14;;;;;;;5.78;2.70;;;;;;;30.94;37.96;99880.47;1824628;78;25591;-67
2023/09/21 10:52:46;;;;;;;4.80;2.10;;;;;;;30.97;38.48;99875.33;1824586;78;27490;-68
2023/09/21 10:55:16;;;;;;;4.45;2.10;;;;;;;31.16;39.11;99869.20;1824587;78;25544;-68
2023/09/21 10:57:48;;;;;;;7.28;2.22;;;;;;;31.59;38.29;99875.83;1824505;78;25546;-68
2023/09/21 11:00:18;;;;;;;4.78;2.50;;;;;;;31.81;38.63;99860.94;1824426;78;25630;-68
2023/09/21 11:02:49;;;;;;;3.60;2.60;;;;;;;31.98;38.46;99865.59;1824499;78;25387;-68
2023/09/21 11:05:18;;;;;;;3.98;2.30;;;;;;;32.37;37.97;99857.47;1824463;78;27599;-68
2023/09/21 11:07:51;;;;;;;4.40;2.17;;;;;;;32.33;36.99;99853.41;1824400;78;25522;-68
2023/09/21 11:10:19;;;;;;;5.80;2.62;;;;;;;32.38;37.04;99872.36;1824483;78;25373;-68
2023/09/21 11:12:48;;;;;;;3.33;2.05;;;;;;;32.38;37.04;99872.36;1824489;78;35046;-68
2023/09/21 11:15:17;;;;;;;5.35;2.30;;;;;;;32.31;37.02;99845.34;1824477;78;25443;-68
2023/09/21 11:17:45;;;;;;;;;;;;;;;32.32;36.51;99844.88;1806601;78;27469;-69
2023/09/21 11:20:20;;;;;;;3.62;2.58;;;;;;;32.31;36.65;99848.91;1824609;78;26123;-68
2023/09/21 11:22:50;;;;;;;2.85;2.05;;;;;;;32.10;36.89;99843.69;1824491;78;25385;-69
2023/09/21 11:25:20;;;;;;;2.55;2.00;;;;;;;32.03;36.68;99824.41;1803815;78;25567;-69
2023/09/21 11:27:49;;;;;;;6.85;2.35;;;;;;;32.38;36.70;99847.18;1793055;78;25382;-67
2023/09/21 11:30:16;;;;;;;3.33;2.20;;;;;;;32.44;36.72;99825.55;1824376;78;28143;-68
2023/09/21 11:32:49;;;;;;;3.00;2.05;;;;;;;32.28;36.73;99821.87;1824273;78;25371;-68
2023/09/21 11:35:20;;;;;;;2.40;1.90;;;;;;;32.28;36.33;99826.06;1824532;78;25540;-69
2023/09/21 11:37:51;;;;;;;2.92;1.92;;;;;;;32.30;35.84;99825.59;1824383;78;25393;-69
2023/09/21 11:40:22;;;;;;;5.37;2.30;;;;;;;32.15;35.88;99822.08;1824485;78;25620;-68
2023/09/21 11:42:50;;;;;;;3.20;1.65;;;;;;;31.89;36.08;99823.03;1824467;78;27532;-69
2023/09/21 11:45:21;;;;;;;;;;;;;;;31.89;36.86;99825.83;1826647;78;25546;-68
2023/09/21 11:47:57;;;;;;;4.20;2.37;;;;;;;32.10;36.48;99808.72;1823837;77;25545;-69
2023/09/21 11:50:30;;;;;;;3.50;2.00;;;;;;;32.51;36.46;99830.84;1822544;78;25523;-69
2023/09/21 11:53:03;;;;;;;4.15;2.20;;;;;;;32.51;36.46;99830.84;1820945;78;25601;-68
2023/09/21 11:55:32;;;;;;;3.95;1.90;;;;;;;32.50;36.33;99799.89;1823837;78;27470;-67
2023/09/21 11:58:13;;;;;;;3.52;2.40;;;;;;;32.38;35.73;99796.05;1823684;78;25562;-69
2023/09/21 12:00:45;;;;;;;3.22;2.05;;;;;;;32.28;35.35;99805.08;1823821;78;25368;-67
2023/09/21 12:03:20;;;;;;;2.08;1.85;;;;;;;32.25;35.89;99789.87;1823811;78;25606;-67
2023/09/21 12:05:47;;;;;;;4.40;2.08;;;;;;;32.29;35.31;99786.30;1823230;78;25625;-68
2023/09/21 12:08:19;;;;;;;2.00;1.80;;;;;;;32.26;35.81;99780.23;1823768;78;27486;-68